sensor_id;sensor_type;location;lat;lon;timestamp;P1;durP1;ratioP1;P2;durP2;ratioP2
76939;SDS011;65885;55.848;35.916;2023-07-16T00:01:59;1.75;;;1.52;;
76939;SDS011;65885;55.848;35.916;2023-07-16T00:04:27;2.35;;;1.65;;
76939;SDS011;65885;55.848;35.916;2023-07-16T00:06:55;1.92;;;1.30;;
76939;SDS011;65885;55.848;35.916;2023-07-16T00:09:22;1.95;;;1.77;;
76939;SDS011;65885;55.848;35.916;2023-07-16T00:11:50;1.75;;;1.50;;
76939;SDS011;65885;55.848;35.916;2023-07-16T00:14:17;2.03;;;1.80;;
76939;SDS011;65885;55.848;35.916;2023-07-16T00:16:46;2.75;;;2.00;;
76939;SDS011;65885;55.848;35.916;2023-07-16T00:19:14;20.38;;;4.32;;
76939;SDS011;65885;55.848;35.916;2023-07-16T00:21:42;3.60;;;1.50;;
76939;SDS011;65885;55.848;35.916;2023-07-16T00:24:09;2.00;;;1.65;;
76939;SDS011;65885;55.848;35.916;2023-07-16T00:26:36;6.15;;;2.75;;
76939;SDS011;65885;55.848;35.916;2023-07-16T00:29:03;1.90;;;1.75;;
76939;SDS011;65885;55.848;35.916;2023-07-16T00:31:31;3.22;;;2.10;;
76939;SDS011;65885;55.848;35.916;2023-07-16T00:34:00;1.90;;;1.63;;
76939;SDS011;65885;55.848;35.916;2023-07-16T00:36:27;26.17;;;3.97;;
76939;SDS011;65885;55.848;35.916;2023-07-16T00:38:55;13.88;;;2.92;;
76939;SDS011;65885;55.848;35.916;2023-07-16T00:41:22;1.80;;;1.35;;
76939;SDS011;65885;55.848;35.916;2023-07-16T00:43:49;4.38;;;1.70;;
76939;SDS011;65885;55.848;35.916;2023-07-16T00:46:16;2.03;;;1.30;;
76939;SDS011;65885;55.848;35.916;2023-07-16T00:48:44;2.78;;;1.35;;
76939;SDS011;65885;55.848;35.916;2023-07-16T00:51:13;4.20;;;2.05;;
76939;SDS011;65885;55.848;35.916;2023-07-16T00:53:41;2.42;;;1.73;;
76939;SDS011;65885;55.848;35.916;2023-07-16T00:56:09;2.28;;;1.60;;
76939;SDS011;65885;55.848;35.916;2023-07-16T00:58:37;3.78;;;1.63;;
76939;SDS011;65885;55.848;35.916;2023-07-16T01:01:04;2.35;;;1.58;;
76939;SDS011;65885;55.848;35.916;2023-07-16T01:03:31;2.67;;;1.27;;
76939;SDS011;65885;55.848;35.916;2023-07-16T01:06:00;1.95;;;1.15;;
76939;SDS011;65885;55.848;35.916;2023-07-16T01:08:38;1.40;;;1.15;;
76939;SDS011;65885;55.848;35.916;2023-07-16T01:11:21;1.38;;;1.25;;
76939;SDS011;65885;55.848;35.916;2023-07-16T01:13:49;1.90;;;1.55;;
76939;SDS011;65885;55.848;35.916;2023-07-16T01:16:20;1.65;;;1.55;;
76939;SDS011;65885;55.848;35.916;2023-07-16T01:18:48;1.38;;;1.15;;
76939;SDS011;65885;55.848;35.916;2023-07-16T01:21:15;5.50;;;1.33;;
76939;SDS011;65885;55.848;35.916;2023-07-16T01:24:09;1.90;;;1.40;;
76939;SDS011;65885;55.848;35.916;2023-07-16T01:27:00;2.15;;;1.58;;
76939;SDS011;65885;55.848;35.916;2023-07-16T01:29:43;1.55;;;1.45;;
76939;SDS011;65885;55.848;35.916;2023-07-16T01:32:16;1.55;;;1.20;;
76939;SDS011;65885;55.848;35.916;2023-07-16T01:34:44;2.28;;;1.30;;
76939;SDS011;65885;55.848;35.916;2023-07-16T01:37:11;1.60;;;1.23;;
76939;SDS011;65885;55.848;35.916;2023-07-16T01:39:39;1.50;;;1.35;;
76939;SDS011;65885;55.848;35.916;2023-07-16T01:42:07;1.63;;;1.30;;
76939;SDS011;65885;55.848;35.916;2023-07-16T01:44:34;2.38;;;1.35;;
76939;SDS011;65885;55.848;35.916;2023-07-16T01:47:08;1.67;;;1.30;;
76939;SDS011;65885;55.848;35.916;2023-07-16T01:49:36;1.52;;;1.33;;
76939;SDS011;65885;55.848;35.916;2023-07-16T01:52:04;1.88;;;1.60;;
76939;SDS011;65885;55.848;35.916;2023-07-16T01:54:33;2.10;;;1.90;;
76939;SDS011;65885;55.848;35.916;2023-07-16T01:57:00;1.77;;;1.67;;
76939;SDS011;65885;55.848;35.916;2023-07-16T01:59:28;2.08;;;1.70;;
76939;SDS011;65885;55.848;35.916;2023-07-16T02:01:55;1.77;;;1.65;;
76939;SDS011;65885;55.848;35.916;2023-07-16T02:04:24;2.03;;;1.52;;
76939;SDS011;65885;55.848;35.916;2023-07-16T02:06:51;2.08;;;1.50;;
76939;SDS011;65885;55.848;35.916;2023-07-16T02:09:18;3.30;;;1.63;;
76939;SDS011;65885;55.848;35.916;2023-07-16T02:11:46;1.63;;;1.52;;
76939;SDS011;65885;55.848;35.916;2023-07-16T02:14:13;2.38;;;1.92;;
76939;SDS011;65885;55.848;35.916;2023-07-16T02:16:41;2.92;;;1.88;;
76939;SDS011;65885;55.848;35.916;2023-07-16T02:19:08;2.05;;;1.75;;
76939;SDS011;65885;55.848;35.916;2023-07-16T02:21:39;2.08;;;1.52;;
76939;SDS011;65885;55.848;35.916;2023-07-16T02:24:06;4.50;;;1.70;;
76939;SDS011;65885;55.848;35.916;2023-07-16T02:26:33;2.92;;;1.75;;
76939;SDS011;65885;55.848;35.916;2023-07-16T02:29:01;3.15;;;1.58;;
76939;SDS011;65885;55.848;35.916;2023-07-16T02:31:28;2.15;;;1.30;;
76939;SDS011;65885;55.848;35.916;2023-07-16T02:33:55;2.60;;;1.70;;
76939;SDS011;65885;55.848;35.916;2023-07-16T02:36:23;2.33;;;2.05;;
76939;SDS011;65885;55.848;35.916;2023-07-16T02:38:51;3.33;;;1.92;;
76939;SDS011;65885;55.848;35.916;2023-07-16T02:41:19;2.28;;;1.60;;
76939;SDS011;65885;55.848;35.916;2023-07-16T02:43:46;2.00;;;1.80;;
76939;SDS011;65885;55.848;35.916;2023-07-16T02:46:13;1.88;;;1.48;;
76939;SDS011;65885;55.848;35.916;2023-07-16T02:48:41;1.92;;;1.77;;
76939;SDS011;65885;55.848;35.916;2023-07-16T02:51:08;2.22;;;2.03;;
76939;SDS011;65885;55.848;35.916;2023-07-16T02:53:35;1.77;;;1.52;;
76939;SDS011;65885;55.848;35.916;2023-07-16T02:56:04;2.10;;;1.48;;
76939;SDS011;65885;55.848;35.916;2023-07-16T02:58:31;1.67;;;1.55;;
76939;SDS011;65885;55.848;35.916;2023-07-16T03:00:59;1.58;;;1.45;;
76939;SDS011;65885;55.848;35.916;2023-07-16T03:03:26;2.28;;;1.40;;
76939;SDS011;65885;55.848;35.916;2023-07-16T03:05:53;2.03;;;1.30;;
76939;SDS011;65885;55.848;35.916;2023-07-16T03:08:20;2.10;;;1.90;;
76939;SDS011;65885;55.848;35.916;2023-07-16T03:10:48;2.72;;;2.10;;
76939;SDS011;65885;55.848;35.916;2023-07-16T03:13:16;3.33;;;1.60;;
76939;SDS011;65885;55.848;35.916;2023-07-16T03:15:44;2.47;;;1.60;;
76939;SDS011;65885;55.848;35.916;2023-07-16T03:18:12;1.98;;;1.75;;
76939;SDS011;65885;55.848;35.916;2023-07-16T03:20:39;1.98;;;1.63;;
76939;SDS011;65885;55.848;35.916;2023-07-16T03:23:07;1.70;;;1.42;;
76939;SDS011;65885;55.848;35.916;2023-07-16T03:25:34;3.35;;;1.63;;
76939;SDS011;65885;55.848;35.916;2023-07-16T03:28:01;2.28;;;1.50;;
76939;SDS011;65885;55.848;35.916;2023-07-16T03:30:31;2.30;;;2.10;;
76939;SDS011;65885;55.848;35.916;2023-07-16T03:32:58;2.47;;;1.77;;
76939;SDS011;65885;55.848;35.916;2023-07-16T03:35:26;2.90;;;1.98;;
76939;SDS011;65885;55.848;35.916;2023-07-16T03:37:53;3.17;;;2.40;;
76939;SDS011;65885;55.848;35.916;2023-07-16T03:40:23;2.40;;;1.90;;
76939;SDS011;65885;55.848;35.916;2023-07-16T03:42:51;3.47;;;2.08;;
76939;SDS011;65885;55.848;35.916;2023-07-16T03:45:18;2.45;;;2.10;;
76939;SDS011;65885;55.848;35.916;2023-07-16T03:47:47;2.53;;;2.03;;
76939;SDS011;65885;55.848;35.916;2023-07-16T03:50:14;3.28;;;2.40;;
76939;SDS011;65885;55.848;35.916;2023-07-16T03:52:43;1.75;;;1.60;;
76939;SDS011;65885;55.848;35.916;2023-07-16T03:55:10;2.17;;;1.88;;
76939;SDS011;65885;55.848;35.916;2023-07-16T03:57:38;2.50;;;2.30;;
76939;SDS011;65885;55.848;35.916;2023-07-16T04:00:05;2.63;;;2.20;;
76939;SDS011;65885;55.848;35.916;2023-07-16T04:02:34;3.28;;;2.80;;
76939;SDS011;65885;55.848;35.916;2023-07-16T04:05:04;5.32;;;3.03;;
76939;SDS011;65885;55.848;35.916;2023-07-16T04:07:32;3.55;;;2.88;;
76939;SDS011;65885;55.848;35.916;2023-07-16T04:10:00;3.65;;;2.72;;
76939;SDS011;65885;55.848;35.916;2023-07-16T04:12:28;64.00;;;57.10;;
76939;SDS011;65885;55.848;35.916;2023-07-16T04:14:56;458.10;;;401.45;;
76939;SDS011;65885;55.848;35.916;2023-07-16T04:17:25;698.70;;;622.90;;
76939;SDS011;65885;55.848;35.916;2023-07-16T04:19:52;974.13;;;766.33;;
76939;SDS011;65885;55.848;35.916;2023-07-16T04:22:21;1301.85;;;882.60;;
76939;SDS011;65885;55.848;35.916;2023-07-16T04:24:48;1574.32;;;954.05;;
76939;SDS011;65885;55.848;35.916;2023-07-16T04:27:16;1785.63;;;999.85;;
76939;SDS011;65885;55.848;35.916;2023-07-16T04:29:43;1519.50;;;932.80;;
76939;SDS011;65885;55.848;35.916;2023-07-16T04:32:11;1082.78;;;793.58;;
76939;SDS011;65885;55.848;35.916;2023-07-16T04:34:38;1139.72;;;832.15;;
76939;SDS011;65885;55.848;35.916;2023-07-16T04:37:05;1281.85;;;880.97;;
76939;SDS011;65885;55.848;35.916;2023-07-16T04:39:34;1458.43;;;925.67;;
76939;SDS011;65885;55.848;35.916;2023-07-16T04:42:01;1272.75;;;843.83;;
76939;SDS011;65885;55.848;35.916;2023-07-16T04:44:29;1775.03;;;996.97;;
76939;SDS011;65885;55.848;35.916;2023-07-16T04:46:56;1639.20;;;945.00;;
76939;SDS011;65885;55.848;35.916;2023-07-16T04:49:23;1999.90;;;999.90;;
76939;SDS011;65885;55.848;35.916;2023-07-16T04:51:50;1999.90;;;999.90;;
76939;SDS011;65885;55.848;35.916;2023-07-16T04:54:17;1999.90;;;999.90;;
76939;SDS011;65885;55.848;35.916;2023-07-16T04:56:46;1999.90;;;999.90;;
76939;SDS011;65885;55.848;35.916;2023-07-16T04:59:14;1999.90;;;999.90;;
76939;SDS011;65885;55.848;35.916;2023-07-16T05:01:41;1999.90;;;999.90;;
76939;SDS011;65885;55.848;35.916;2023-07-16T05:04:08;1999.90;;;999.90;;
76939;SDS011;65885;55.848;35.916;2023-07-16T05:06:35;1999.90;;;999.90;;
76939;SDS011;65885;55.848;35.916;2023-07-16T05:09:03;1999.90;;;999.90;;
76939;SDS011;65885;55.848;35.916;2023-07-16T05:11:30;1999.90;;;999.90;;
76939;SDS011;65885;55.848;35.916;2023-07-16T05:14:00;1999.90;;;999.90;;
76939;SDS011;65885;55.848;35.916;2023-07-16T05:16:27;1999.90;;;999.90;;
76939;SDS011;65885;55.848;35.916;2023-07-16T05:18:54;1999.90;;;999.90;;
76939;SDS011;65885;55.848;35.916;2023-07-16T05:21:21;1453.80;;;913.20;;
76939;SDS011;65885;55.848;35.916;2023-07-16T05:23:49;1148.40;;;820.72;;
76939;SDS011;65885;55.848;35.916;2023-07-16T05:26:16;952.92;;;736.58;;
76939;SDS011;65885;55.848;35.916;2023-07-16T05:28:43;523.45;;;405.42;;
76939;SDS011;65885;55.848;35.916;2023-07-16T05:31:12;502.35;;;358.98;;
76939;SDS011;65885;55.848;35.916;2023-07-16T05:33:40;298.83;;;207.02;;
76939;SDS011;65885;55.848;35.916;2023-07-16T05:36:07;74.50;;;48.55;;
76939;SDS011;65885;55.848;35.916;2023-07-16T05:38:34;94.90;;;60.22;;
76939;SDS011;65885;55.848;35.916;2023-07-16T05:41:02;64.28;;;42.03;;
76939;SDS011;65885;55.848;35.916;2023-07-16T05:43:30;85.63;;;59.30;;
76939;SDS011;65885;55.848;35.916;2023-07-16T05:45:58;77.78;;;46.38;;
76939;SDS011;65885;55.848;35.916;2023-07-16T05:48:27;34.65;;;22.13;;
76939;SDS011;65885;55.848;35.916;2023-07-16T05:50:54;37.03;;;22.88;;
76939;SDS011;65885;55.848;35.916;2023-07-16T05:53:21;36.17;;;22.73;;
76939;SDS011;65885;55.848;35.916;2023-07-16T05:55:48;19.08;;;12.98;;
76939;SDS011;65885;55.848;35.916;2023-07-16T05:58:17;13.77;;;8.13;;
76939;SDS011;65885;55.848;35.916;2023-07-16T06:00:44;9.15;;;5.40;;
76939;SDS011;65885;55.848;35.916;2023-07-16T06:03:11;9.98;;;6.18;;
76939;SDS011;65885;55.848;35.916;2023-07-16T06:05:43;5.75;;;4.00;;
76939;SDS011;65885;55.848;35.916;2023-07-16T06:08:10;6.07;;;4.13;;
76939;SDS011;65885;55.848;35.916;2023-07-16T06:10:38;5.35;;;3.20;;
76939;SDS011;65885;55.848;35.916;2023-07-16T06:13:05;4.53;;;3.38;;
76939;SDS011;65885;55.848;35.916;2023-07-16T06:15:32;4.10;;;3.15;;
76939;SDS011;65885;55.848;35.916;2023-07-16T06:17:59;3.50;;;2.90;;
76939;SDS011;65885;55.848;35.916;2023-07-16T06:20:27;2.92;;;2.63;;
76939;SDS011;65885;55.848;35.916;2023-07-16T06:22:56;2.72;;;2.50;;
76939;SDS011;65885;55.848;35.916;2023-07-16T06:25:23;2.92;;;2.55;;
76939;SDS011;65885;55.848;35.916;2023-07-16T06:27:50;3.00;;;2.67;;
76939;SDS011;65885;55.848;35.916;2023-07-16T06:30:18;2.75;;;2.20;;
76939;SDS011;65885;55.848;35.916;2023-07-16T06:32:45;3.05;;;2.42;;
76939;SDS011;65885;55.848;35.916;2023-07-16T06:35:12;2.45;;;2.10;;
76939;SDS011;65885;55.848;35.916;2023-07-16T06:37:40;2.42;;;2.22;;
76939;SDS011;65885;55.848;35.916;2023-07-16T06:40:09;2.47;;;2.28;;
76939;SDS011;65885;55.848;35.916;2023-07-16T06:42:38;2.35;;;2.15;;
76939;SDS011;65885;55.848;35.916;2023-07-16T06:45:06;2.72;;;2.30;;
76939;SDS011;65885;55.848;35.916;2023-07-16T06:47:34;3.13;;;2.38;;
76939;SDS011;65885;55.848;35.916;2023-07-16T06:50:01;3.15;;;2.40;;
76939;SDS011;65885;55.848;35.916;2023-07-16T06:52:29;2.42;;;2.22;;
76939;SDS011;65885;55.848;35.916;2023-07-16T06:54:57;2.63;;;2.42;;
76939;SDS011;65885;55.848;35.916;2023-07-16T06:57:26;3.00;;;2.50;;
76939;SDS011;65885;55.848;35.916;2023-07-16T06:59:53;3.47;;;2.80;;
76939;SDS011;65885;55.848;35.916;2023-07-16T07:02:20;3.53;;;2.60;;
76939;SDS011;65885;55.848;35.916;2023-07-16T07:04:48;3.10;;;2.50;;
76939;SDS011;65885;55.848;35.916;2023-07-16T07:07:15;3.13;;;2.30;;
76939;SDS011;65885;55.848;35.916;2023-07-16T07:09:42;2.67;;;2.08;;
76939;SDS011;65885;55.848;35.916;2023-07-16T07:12:10;3.75;;;2.75;;
76939;SDS011;65885;55.848;35.916;2023-07-16T07:14:39;3.40;;;2.72;;
76939;SDS011;65885;55.848;35.916;2023-07-16T07:17:06;3.35;;;2.50;;
76939;SDS011;65885;55.848;35.916;2023-07-16T07:19:34;2.40;;;2.10;;
76939;SDS011;65885;55.848;35.916;2023-07-16T07:22:01;2.25;;;2.03;;
76939;SDS011;65885;55.848;35.916;2023-07-16T07:24:28;2.60;;;2.40;;
76939;SDS011;65885;55.848;35.916;2023-07-16T07:26:55;4.50;;;2.90;;
76939;SDS011;65885;55.848;35.916;2023-07-16T07:29:23;4.28;;;2.60;;
76939;SDS011;65885;55.848;35.916;2023-07-16T07:31:52;3.25;;;2.95;;
76939;SDS011;65885;55.848;35.916;2023-07-16T07:34:20;3.70;;;2.90;;
76939;SDS011;65885;55.848;35.916;2023-07-16T07:36:47;4.72;;;2.60;;
76939;SDS011;65885;55.848;35.916;2023-07-16T07:39:14;3.58;;;2.53;;
76939;SDS011;65885;55.848;35.916;2023-07-16T07:41:42;3.50;;;2.50;;
76939;SDS011;65885;55.848;35.916;2023-07-16T07:44:09;2.83;;;2.53;;
76939;SDS011;65885;55.848;35.916;2023-07-16T07:46:37;3.50;;;2.42;;
76939;SDS011;65885;55.848;35.916;2023-07-16T07:49:05;3.13;;;2.30;;
76939;SDS011;65885;55.848;35.916;2023-07-16T07:51:33;3.10;;;2.60;;
76939;SDS011;65885;55.848;35.916;2023-07-16T07:54:00;2.80;;;2.42;;
76939;SDS011;65885;55.848;35.916;2023-07-16T07:56:27;3.20;;;2.30;;
76939;SDS011;65885;55.848;35.916;2023-07-16T07:58:55;2.40;;;2.20;;
76939;SDS011;65885;55.848;35.916;2023-07-16T08:01:22;2.90;;;2.60;;
76939;SDS011;65885;55.848;35.916;2023-07-16T08:03:50;2.47;;;2.20;;
76939;SDS011;65885;55.848;35.916;2023-07-16T08:06:18;2.50;;;2.28;;
76939;SDS011;65885;55.848;35.916;2023-07-16T08:08:45;3.10;;;2.40;;
76939;SDS011;65885;55.848;35.916;2023-07-16T08:11:13;2.88;;;2.28;;
76939;SDS011;65885;55.848;35.916;2023-07-16T08:13:41;2.63;;;2.40;;
76939;SDS011;65885;55.848;35.916;2023-07-16T08:16:08;4.50;;;2.20;;
76939;SDS011;65885;55.848;35.916;2023-07-16T08:18:35;3.20;;;2.20;;
76939;SDS011;65885;55.848;35.916;2023-07-16T08:21:04;2.85;;;2.13;;
76939;SDS011;65885;55.848;35.916;2023-07-16T08:23:33;3.75;;;2.22;;
76939;SDS011;65885;55.848;35.916;2023-07-16T08:26:01;2.58;;;2.13;;
76939;SDS011;65885;55.848;35.916;2023-07-16T08:28:28;3.50;;;2.40;;
76939;SDS011;65885;55.848;35.916;2023-07-16T08:30:55;3.80;;;2.35;;
76939;SDS011;65885;55.848;35.916;2023-07-16T08:33:22;2.30;;;1.90;;
76939;SDS011;65885;55.848;35.916;2023-07-16T08:35:50;3.13;;;2.10;;
76939;SDS011;65885;55.848;35.916;2023-07-16T08:38:17;2.22;;;1.90;;
76939;SDS011;65885;55.848;35.916;2023-07-16T08:40:46;2.65;;;1.73;;
76939;SDS011;65885;55.848;35.916;2023-07-16T08:43:14;2.60;;;2.10;;
76939;SDS011;65885;55.848;35.916;2023-07-16T08:45:44;1.80;;;1.40;;
76939;SDS011;65885;55.848;35.916;2023-07-16T08:48:12;2.78;;;1.85;;
76939;SDS011;65885;55.848;35.916;2023-07-16T08:50:39;2.30;;;2.10;;
76939;SDS011;65885;55.848;35.916;2023-07-16T08:53:08;2.53;;;1.55;;
76939;SDS011;65885;55.848;35.916;2023-07-16T08:55:35;1.92;;;1.73;;
76939;SDS011;65885;55.848;35.916;2023-07-16T08:58:06;2.13;;;1.60;;
76939;SDS011;65885;55.848;35.916;2023-07-16T09:00:33;2.45;;;1.50;;
76939;SDS011;65885;55.848;35.916;2023-07-16T09:03:00;1.60;;;1.40;;
76939;SDS011;65885;55.848;35.916;2023-07-16T09:05:28;1.40;;;1.30;;
76939;SDS011;65885;55.848;35.916;2023-07-16T09:07:56;1.38;;;0.95;;
76939;SDS011;65885;55.848;35.916;2023-07-16T09:10:23;1.65;;;1.38;;
76939;SDS011;65885;55.848;35.916;2023-07-16T09:12:51;1.85;;;1.50;;
76939;SDS011;65885;55.848;35.916;2023-07-16T09:15:19;2.03;;;1.80;;
76939;SDS011;65885;55.848;35.916;2023-07-16T09:17:47;1.90;;;1.40;;
76939;SDS011;65885;55.848;35.916;2023-07-16T09:20:15;1.60;;;1.30;;
76939;SDS011;65885;55.848;35.916;2023-07-16T09:22:43;2.65;;;1.65;;
76939;SDS011;65885;55.848;35.916;2023-07-16T09:25:11;2.05;;;1.85;;
76939;SDS011;65885;55.848;35.916;2023-07-16T09:27:39;2.05;;;1.70;;
76939;SDS011;65885;55.848;35.916;2023-07-16T09:30:13;2.13;;;1.40;;
76939;SDS011;65885;55.848;35.916;2023-07-16T09:32:43;1.80;;;1.50;;
76939;SDS011;65885;55.848;35.916;2023-07-16T09:35:11;2.63;;;2.00;;
76939;SDS011;65885;55.848;35.916;2023-07-16T09:37:39;1.83;;;1.58;;
76939;SDS011;65885;55.848;35.916;2023-07-16T09:40:07;2.10;;;1.65;;
76939;SDS011;65885;55.848;35.916;2023-07-16T09:42:37;1.85;;;1.38;;
76939;SDS011;65885;55.848;35.916;2023-07-16T09:45:05;1.55;;;1.45;;
76939;SDS011;65885;55.848;35.916;2023-07-16T09:47:33;1.33;;;1.20;;
76939;SDS011;65885;55.848;35.916;2023-07-16T09:50:02;1.40;;;1.30;;
76939;SDS011;65885;55.848;35.916;2023-07-16T09:52:31;1.67;;;1.58;;
76939;SDS011;65885;55.848;35.916;2023-07-16T09:55:01;2.17;;;1.80;;
76939;SDS011;65885;55.848;35.916;2023-07-16T09:57:32;1.60;;;1.50;;
76939;SDS011;65885;55.848;35.916;2023-07-16T10:00:02;1.95;;;1.60;;
76939;SDS011;65885;55.848;35.916;2023-07-16T10:02:33;2.13;;;1.92;;
76939;SDS011;65885;55.848;35.916;2023-07-16T10:05:12;2.38;;;1.52;;
76939;SDS011;65885;55.848;35.916;2023-07-16T10:07:39;2.15;;;1.80;;
76939;SDS011;65885;55.848;35.916;2023-07-16T10:10:08;1.88;;;1.50;;
76939;SDS011;65885;55.848;35.916;2023-07-16T10:12:36;1.75;;;1.50;;
76939;SDS011;65885;55.848;35.916;2023-07-16T10:15:04;1.88;;;1.50;;
76939;SDS011;65885;55.848;35.916;2023-07-16T10:17:32;1.50;;;1.40;;
76939;SDS011;65885;55.848;35.916;2023-07-16T10:20:00;2.33;;;1.80;;
76939;SDS011;65885;55.848;35.916;2023-07-16T10:22:37;2.30;;;1.60;;
76939;SDS011;65885;55.848;35.916;2023-07-16T10:25:08;1.60;;;1.50;;
76939;SDS011;65885;55.848;35.916;2023-07-16T10:27:36;2.03;;;1.65;;
76939;SDS011;65885;55.848;35.916;2023-07-16T10:30:04;1.80;;;1.52;;
76939;SDS011;65885;55.848;35.916;2023-07-16T10:32:32;1.70;;;1.60;;
76939;SDS011;65885;55.848;35.916;2023-07-16T10:35:00;3.95;;;1.80;;
76939;SDS011;65885;55.848;35.916;2023-07-16T10:37:29;1.63;;;1.50;;
76939;SDS011;65885;55.848;35.916;2023-07-16T10:39:58;1.98;;;1.77;;
76939;SDS011;65885;55.848;35.916;2023-07-16T10:42:26;3.42;;;1.90;;
76939;SDS011;65885;55.848;35.916;2023-07-16T10:44:54;1.92;;;1.60;;
76939;SDS011;65885;55.848;35.916;2023-07-16T10:47:28;1.55;;;1.45;;
76939;SDS011;65885;55.848;35.916;2023-07-16T10:49:57;2.50;;;1.60;;
76939;SDS011;65885;55.848;35.916;2023-07-16T10:52:25;1.85;;;1.58;;
76939;SDS011;65885;55.848;35.916;2023-07-16T10:54:53;2.10;;;1.90;;
76939;SDS011;65885;55.848;35.916;2023-07-16T10:57:24;1.75;;;1.45;;
76939;SDS011;65885;55.848;35.916;2023-07-16T10:59:52;1.55;;;1.40;;
76939;SDS011;65885;55.848;35.916;2023-07-16T11:02:20;2.58;;;1.48;;
76939;SDS011;65885;55.848;35.916;2023-07-16T11:04:49;3.10;;;1.65;;
76939;SDS011;65885;55.848;35.916;2023-07-16T11:07:19;1.90;;;1.80;;
76939;SDS011;65885;55.848;35.916;2023-07-16T11:09:47;1.73;;;1.48;;
76939;SDS011;65885;55.848;35.916;2023-07-16T11:12:16;1.48;;;1.38;;
76939;SDS011;65885;55.848;35.916;2023-07-16T11:14:46;1.83;;;1.65;;
76939;SDS011;65885;55.848;35.916;2023-07-16T11:17:15;1.70;;;1.60;;
76939;SDS011;65885;55.848;35.916;2023-07-16T11:19:44;1.55;;;1.40;;
76939;SDS011;65885;55.848;35.916;2023-07-16T11:24:41;1.83;;;1.60;;
76939;SDS011;65885;55.848;35.916;2023-07-16T11:27:12;1.77;;;1.50;;
76939;SDS011;65885;55.848;35.916;2023-07-16T11:29:46;1.80;;;1.60;;
76939;SDS011;65885;55.848;35.916;2023-07-16T11:32:14;1.83;;;1.70;;
76939;SDS011;65885;55.848;35.916;2023-07-16T11:34:52;3.35;;;1.88;;
76939;SDS011;65885;55.848;35.916;2023-07-16T11:37:20;2.58;;;1.80;;
76939;SDS011;65885;55.848;35.916;2023-07-16T11:39:48;2.15;;;1.90;;
76939;SDS011;65885;55.848;35.916;2023-07-16T11:42:18;1.80;;;1.70;;
76939;SDS011;65885;55.848;35.916;2023-07-16T11:44:51;3.03;;;1.80;;
76939;SDS011;65885;55.848;35.916;2023-07-16T11:47:20;2.55;;;1.98;;
76939;SDS011;65885;55.848;35.916;2023-07-16T11:49:47;3.15;;;1.67;;
76939;SDS011;65885;55.848;35.916;2023-07-16T11:52:18;2.00;;;1.75;;
76939;SDS011;65885;55.848;35.916;2023-07-16T11:54:46;2.22;;;1.90;;
76939;SDS011;65885;55.848;35.916;2023-07-16T11:57:13;3.08;;;1.90;;
76939;SDS011;65885;55.848;35.916;2023-07-16T11:59:40;2.45;;;1.85;;
76939;SDS011;65885;55.848;35.916;2023-07-16T12:02:09;2.55;;;1.80;;
76939;SDS011;65885;55.848;35.916;2023-07-16T12:04:37;2.40;;;1.70;;
76939;SDS011;65885;55.848;35.916;2023-07-16T12:07:04;1.80;;;1.70;;
76939;SDS011;65885;55.848;35.916;2023-07-16T12:09:31;3.08;;;1.98;;
76939;SDS011;65885;55.848;35.916;2023-07-16T12:11:59;1.98;;;1.77;;
76939;SDS011;65885;55.848;35.916;2023-07-16T12:14:26;1.98;;;1.42;;
76939;SDS011;65885;55.848;35.916;2023-07-16T12:16:54;2.33;;;1.63;;
76939;SDS011;65885;55.848;35.916;2023-07-16T12:19:23;1.92;;;1.60;;
76939;SDS011;65885;55.848;35.916;2023-07-16T12:21:51;1.83;;;1.45;;
76939;SDS011;65885;55.848;35.916;2023-07-16T12:24:19;1.75;;;1.50;;
76939;SDS011;65885;55.848;35.916;2023-07-16T12:26:46;1.85;;;1.60;;
76939;SDS011;65885;55.848;35.916;2023-07-16T12:29:13;2.13;;;1.77;;
76939;SDS011;65885;55.848;35.916;2023-07-16T12:31:41;1.75;;;1.50;;
76939;SDS011;65885;55.848;35.916;2023-07-16T12:34:08;1.73;;;1.60;;
76939;SDS011;65885;55.848;35.916;2023-07-16T12:36:38;2.15;;;1.50;;
76939;SDS011;65885;55.848;35.916;2023-07-16T12:39:05;2.00;;;1.70;;
76939;SDS011;65885;55.848;35.916;2023-07-16T12:41:32;4.55;;;1.83;;
76939;SDS011;65885;55.848;35.916;2023-07-16T12:44:00;1.95;;;1.75;;
76939;SDS011;65885;55.848;35.916;2023-07-16T12:46:27;1.80;;;1.70;;
76939;SDS011;65885;55.848;35.916;2023-07-16T12:48:54;2.05;;;1.85;;
76939;SDS011;65885;55.848;35.916;2023-07-16T12:51:22;2.25;;;2.03;;
76939;SDS011;65885;55.848;35.916;2023-07-16T12:53:50;3.05;;;1.83;;
76939;SDS011;65885;55.848;35.916;2023-07-16T12:56:18;2.47;;;2.28;;
76939;SDS011;65885;55.848;35.916;2023-07-16T12:58:46;2.40;;;2.03;;
76939;SDS011;65885;55.848;35.916;2023-07-16T13:01:14;2.00;;;1.80;;
76939;SDS011;65885;55.848;35.916;2023-07-16T13:03:41;2.13;;;1.70;;
76939;SDS011;65885;55.848;35.916;2023-07-16T13:06:09;2.30;;;1.70;;
76939;SDS011;65885;55.848;35.916;2023-07-16T13:08:37;2.13;;;1.92;;
76939;SDS011;65885;55.848;35.916;2023-07-16T13:11:05;2.30;;;2.10;;
76939;SDS011;65885;55.848;35.916;2023-07-16T13:13:33;1.85;;;1.60;;
76939;SDS011;65885;55.848;35.916;2023-07-16T13:16:00;2.58;;;1.67;;
76939;SDS011;65885;55.848;35.916;2023-07-16T13:18:28;2.15;;;1.67;;
76939;SDS011;65885;55.848;35.916;2023-07-16T13:20:55;1.70;;;1.60;;
76939;SDS011;65885;55.848;35.916;2023-07-16T13:23:22;2.47;;;1.80;;
76939;SDS011;65885;55.848;35.916;2023-07-16T13:25:49;2.47;;;1.92;;
76939;SDS011;65885;55.848;35.916;2023-07-16T13:28:19;2.30;;;1.80;;
76939;SDS011;65885;55.848;35.916;2023-07-16T13:30:48;2.83;;;2.00;;
76939;SDS011;65885;55.848;35.916;2023-07-16T13:33:15;2.08;;;1.85;;
76939;SDS011;65885;55.848;35.916;2023-07-16T13:35:44;2.22;;;1.80;;
76939;SDS011;65885;55.848;35.916;2023-07-16T13:38:12;2.17;;;1.92;;
76939;SDS011;65885;55.848;35.916;2023-07-16T13:40:39;1.88;;;1.73;;
76939;SDS011;65885;55.848;35.916;2023-07-16T13:43:06;2.30;;;2.10;;
76939;SDS011;65885;55.848;35.916;2023-07-16T13:45:35;2.20;;;2.00;;
76939;SDS011;65885;55.848;35.916;2023-07-16T13:48:02;1.90;;;1.70;;
76939;SDS011;65885;55.848;35.916;2023-07-16T13:50:29;1.70;;;1.60;;
76939;SDS011;65885;55.848;35.916;2023-07-16T13:52:57;2.45;;;1.70;;
76939;SDS011;65885;55.848;35.916;2023-07-16T13:55:26;2.40;;;2.03;;
76939;SDS011;65885;55.848;35.916;2023-07-16T13:57:54;1.55;;;1.27;;
76939;SDS011;65885;55.848;35.916;2023-07-16T14:00:21;2.38;;;2.17;;
76939;SDS011;65885;55.848;35.916;2023-07-16T14:02:50;1.65;;;1.52;;
76939;SDS011;65885;55.848;35.916;2023-07-16T14:05:19;3.17;;;1.77;;
76939;SDS011;65885;55.848;35.916;2023-07-16T14:07:46;2.13;;;1.77;;
76939;SDS011;65885;55.848;35.916;2023-07-16T14:10:15;1.50;;;1.40;;
76939;SDS011;65885;55.848;35.916;2023-07-16T14:12:42;1.70;;;1.45;;
76939;SDS011;65885;55.848;35.916;2023-07-16T14:15:09;2.60;;;1.63;;
76939;SDS011;65885;55.848;35.916;2023-07-16T14:17:37;1.60;;;1.48;;
76939;SDS011;65885;55.848;35.916;2023-07-16T14:20:07;1.80;;;1.60;;
76939;SDS011;65885;55.848;35.916;2023-07-16T14:22:35;2.50;;;1.50;;
76939;SDS011;65885;55.848;35.916;2023-07-16T14:25:03;2.10;;;1.75;;
76939;SDS011;65885;55.848;35.916;2023-07-16T14:27:31;2.78;;;1.70;;
76939;SDS011;65885;55.848;35.916;2023-07-16T14:29:58;1.92;;;1.48;;
76939;SDS011;65885;55.848;35.916;2023-07-16T14:32:25;2.13;;;1.88;;
76939;SDS011;65885;55.848;35.916;2023-07-16T14:34:54;3.42;;;1.75;;
76939;SDS011;65885;55.848;35.916;2023-07-16T14:37:22;1.75;;;1.60;;